createdAt,value
2022-10-16T00:00:23.974Z,17.98
2022-10-16T00:02:50.434Z,15.25
2022-10-16T00:05:17.049Z,13.80
2022-10-16T00:07:43.683Z,15.02
2022-10-16T00:10:10.326Z,13.65
2022-10-16T00:12:36.960Z,14.73
2022-10-16T00:15:03.547Z,14.75
2022-10-16T00:17:30.479Z,15.05
2022-10-16T00:19:57.829Z,14.30
2022-10-16T00:22:24.909Z,17.33
2022-10-16T00:24:51.687Z,12.48
2022-10-16T00:27:18.221Z,16.38
2022-10-16T00:29:44.765Z,14.75
2022-10-16T00:32:11.296Z,17.27
2022-10-16T00:34:37.757Z,15.10
2022-10-16T00:37:04.290Z,15.10
2022-10-16T00:39:30.807Z,14.55
2022-10-16T00:41:57.367Z,17.05
2022-10-16T00:44:42.713Z,13.57
2022-10-16T00:47:10.586Z,17.02
2022-10-16T00:49:37.324Z,17.80
2022-10-16T00:52:04.061Z,16.58
2022-10-16T00:54:31.217Z,15.30
2022-10-16T00:56:58.160Z,16.15
2022-10-16T00:59:34.936Z,17.58
2022-10-16T01:02:01.504Z,16.15
2022-10-16T01:04:28.110Z,16.85
2022-10-16T01:07:07.547Z,18.98
2022-10-16T01:09:52.728Z,19.95
2022-10-16T01:12:28.882Z,18.33
2022-10-16T01:14:58.314Z,18.92
2022-10-16T01:17:34.138Z,20.67
2022-10-16T01:20:05.418Z,18.20
2022-10-16T01:22:40.320Z,19.65
2022-10-16T01:25:07.162Z,20.85
2022-10-16T01:27:33.829Z,16.75
2022-10-16T01:30:00.362Z,21.42
2022-10-16T01:32:32.916Z,18.90
2022-10-16T01:34:59.349Z,22.05
2022-10-16T01:37:31.856Z,18.70
2022-10-16T01:39:59.596Z,22.05
2022-10-16T01:42:27.482Z,22.33
2022-10-16T01:44:53.990Z,24.48
2022-10-16T01:47:21.140Z,27.63
2022-10-16T01:49:47.810Z,27.30
2022-10-16T01:52:15.746Z,23.27
2022-10-16T01:54:43.100Z,25.48
2022-10-16T01:57:09.740Z,22.33
2022-10-16T01:59:37.030Z,20.90
2022-10-16T02:02:05.509Z,22.45
2022-10-16T02:04:33.576Z,23.45
2022-10-16T02:07:00.182Z,20.80
2022-10-16T02:09:26.949Z,26.55
2022-10-16T02:11:53.897Z,23.73
2022-10-16T02:14:20.538Z,21.10
2022-10-16T02:16:47.555Z,24.58
2022-10-16T02:19:14.396Z,19.50
2022-10-16T02:21:55.608Z,18.35
2022-10-16T02:24:36.347Z,18.45
2022-10-16T02:27:05.269Z,21.60
2022-10-16T02:29:31.972Z,19.92
2022-10-16T02:31:59.848Z,20.33
2022-10-16T02:34:26.686Z,21.30
2022-10-16T02:36:53.161Z,21.42
2022-10-16T02:39:19.681Z,18.05
2022-10-16T02:41:46.294Z,20.88
2022-10-16T02:44:12.752Z,18.02
2022-10-16T02:46:39.570Z,20.98
2022-10-16T02:49:06.107Z,19.63
2022-10-16T02:51:32.676Z,18.98
2022-10-16T02:53:59.279Z,18.77
2022-10-16T02:56:25.743Z,19.02
2022-10-16T02:58:52.281Z,18.55
2022-10-16T03:01:18.925Z,17.23
2022-10-16T03:03:45.565Z,15.38
2022-10-16T03:06:12.090Z,16.15
2022-10-16T03:08:38.627Z,17.40
2022-10-16T03:11:05.160Z,21.05
2022-10-16T03:13:31.705Z,20.13
2022-10-16T03:15:58.208Z,17.48
2022-10-16T03:18:24.768Z,16.60
2022-10-16T03:20:51.310Z,14.32
2022-10-16T03:23:17.978Z,17.40
2022-10-16T03:25:44.566Z,18.88
2022-10-16T03:28:11.502Z,19.02
2022-10-16T03:30:38.045Z,18.40
2022-10-16T03:33:04.567Z,20.88
2022-10-16T03:35:31.319Z,20.98
2022-10-16T03:37:57.949Z,18.92
2022-10-16T03:40:24.698Z,21.70
2022-10-16T03:42:51.327Z,21.92
2022-10-16T03:45:17.863Z,20.45
2022-10-16T03:47:44.332Z,21.65
2022-10-16T03:50:10.936Z,21.45
2022-10-16T03:52:37.476Z,21.40
2022-10-16T03:55:04.209Z,21.00
2022-10-16T03:57:30.756Z,20.45
2022-10-16T03:59:57.308Z,20.40
2022-10-16T04:02:24.121Z,21.83
2022-10-16T04:04:50.689Z,20.15
2022-10-16T04:07:17.326Z,18.25
2022-10-16T04:09:43.962Z,21.55
2022-10-16T04:12:10.576Z,17.23
2022-10-16T04:14:37.124Z,24.05
2022-10-16T04:17:03.667Z,19.33
2022-10-16T04:19:30.193Z,17.90
2022-10-16T04:21:56.740Z,21.50
2022-10-16T04:24:23.283Z,18.73
2022-10-16T04:26:49.819Z,17.92
2022-10-16T04:29:16.355Z,20.25
2022-10-16T04:31:42.886Z,17.35
2022-10-16T04:34:09.423Z,17.80
2022-10-16T04:36:35.959Z,16.08
2022-10-16T04:39:02.467Z,15.65
2022-10-16T04:41:29.009Z,15.60
2022-10-16T04:43:55.545Z,20.48
2022-10-16T04:46:22.079Z,32.72
2022-10-16T04:48:48.533Z,28.20
2022-10-16T04:51:15.137Z,29.05
2022-10-16T04:53:41.601Z,23.73
2022-10-16T04:56:08.442Z,22.48
2022-10-16T04:58:34.981Z,18.55
2022-10-16T05:01:01.523Z,19.77
2022-10-16T05:03:28.169Z,17.38
2022-10-16T05:05:54.688Z,22.35
2022-10-16T05:08:21.205Z,18.00
2022-10-16T05:10:47.861Z,16.20
2022-10-16T05:13:14.403Z,16.60
2022-10-16T05:15:41.141Z,18.83
2022-10-16T05:18:07.677Z,20.83
2022-10-16T05:20:34.217Z,19.27
2022-10-16T05:23:00.782Z,17.92
2022-10-16T05:25:27.371Z,17.25
2022-10-16T05:27:53.993Z,16.33
2022-10-16T05:30:21.352Z,19.52
2022-10-16T05:32:51.303Z,16.20
2022-10-16T05:35:18.213Z,19.70
2022-10-16T05:37:44.779Z,17.83
2022-10-16T05:40:11.496Z,20.08
2022-10-16T05:42:38.469Z,15.90
2022-10-16T05:45:05.995Z,19.30
2022-10-16T05:47:32.552Z,19.63
2022-10-16T05:49:59.072Z,18.73
2022-10-16T05:52:25.625Z,16.63
2022-10-16T05:54:52.141Z,20.88
2022-10-16T05:57:18.712Z,21.75
2022-10-16T05:59:45.206Z,17.35
2022-10-16T06:02:13.210Z,19.48
2022-10-16T06:04:40.164Z,17.92
2022-10-16T06:07:06.684Z,19.85
2022-10-16T06:09:33.222Z,19.52
2022-10-16T06:11:59.864Z,23.42
2022-10-16T06:14:26.504Z,24.58
2022-10-16T06:16:53.028Z,19.27
2022-10-16T06:19:19.744Z,19.60
2022-10-16T06:21:46.616Z,21.23
2022-10-16T06:24:13.154Z,18.02
2022-10-16T06:26:39.900Z,18.33
2022-10-16T06:29:06.601Z,19.30
2022-10-16T06:31:35.193Z,20.95
2022-10-16T06:34:01.760Z,19.85
2022-10-16T06:36:28.505Z,20.15
2022-10-16T06:38:55.046Z,19.98
2022-10-16T06:41:22.158Z,21.88
2022-10-16T06:43:48.796Z,18.80
2022-10-16T06:46:16.168Z,18.90
2022-10-16T06:48:42.784Z,19.17
2022-10-16T06:51:13.213Z,19.08
2022-10-16T06:54:01.439Z,20.17
2022-10-16T06:56:28.908Z,15.55
2022-10-16T06:58:55.855Z,16.58
2022-10-16T07:01:23.246Z,15.93
2022-10-16T07:03:49.849Z,19.38
2022-10-16T07:06:17.029Z,22.58
2022-10-16T07:08:44.078Z,13.18
2022-10-16T07:11:14.470Z,17.55
2022-10-16T07:13:42.561Z,14.77
2022-10-16T07:16:09.693Z,13.45
2022-10-16T07:18:36.571Z,13.93
2022-10-16T07:21:10.070Z,14.73
2022-10-16T07:23:36.684Z,12.45
2022-10-16T07:26:03.416Z,14.25
2022-10-16T07:28:30.240Z,11.60
2022-10-16T07:30:56.820Z,12.45
2022-10-16T07:33:23.303Z,13.32
2022-10-16T07:35:50.592Z,14.38
2022-10-16T07:38:17.105Z,15.10
2022-10-16T07:40:43.678Z,12.18
2022-10-16T07:43:10.176Z,12.15
2022-10-16T07:45:36.630Z,17.23
2022-10-16T07:48:03.150Z,14.48
2022-10-16T07:50:29.633Z,11.63
2022-10-16T07:52:56.162Z,10.60
2022-10-16T07:55:22.664Z,10.52
2022-10-16T07:57:49.250Z,13.02
2022-10-16T08:00:15.889Z,13.60
2022-10-16T08:02:42.490Z,10.25
2022-10-16T08:05:09.349Z,10.85
2022-10-16T08:07:35.860Z,13.80
2022-10-16T08:10:02.888Z,11.85
2022-10-16T08:12:29.444Z,10.73
2022-10-16T08:14:56.075Z,11.50
2022-10-16T08:17:22.547Z,8.27
2022-10-16T08:19:49.076Z,11.98
2022-10-16T08:22:15.681Z,13.40
2022-10-16T08:24:42.220Z,9.77
2022-10-16T08:27:10.086Z,9.27
2022-10-16T08:29:36.620Z,11.43
2022-10-16T08:32:04.846Z,11.35
2022-10-16T08:34:31.538Z,9.10
2022-10-16T08:36:58.080Z,11.75
2022-10-16T08:39:24.649Z,11.00
2022-10-16T08:41:54.212Z,8.18
2022-10-16T08:44:20.812Z,8.57
2022-10-16T08:47:06.284Z,11.02
2022-10-16T08:49:33.013Z,10.43
2022-10-16T08:52:01.350Z,9.85
2022-10-16T08:54:27.884Z,8.18
2022-10-16T08:56:57.898Z,11.05
2022-10-16T08:59:24.434Z,9.73
2022-10-16T09:01:51.689Z,9.30
2022-10-16T09:04:36.759Z,8.95
2022-10-16T09:07:06.062Z,11.32
2022-10-16T09:09:49.903Z,10.52
2022-10-16T09:12:39.932Z,11.70
2022-10-16T09:15:06.686Z,8.40
2022-10-16T09:17:37.390Z,8.00
2022-10-16T09:20:10.044Z,9.90
2022-10-16T09:22:36.613Z,8.82
2022-10-16T09:25:11.928Z,8.23
2022-10-16T09:27:38.457Z,9.30
2022-10-16T09:30:14.824Z,8.77
2022-10-16T09:32:41.763Z,9.90
2022-10-16T09:35:12.424Z,7.13
2022-10-16T09:37:38.939Z,9.02
2022-10-16T09:40:07.608Z,8.13
2022-10-16T09:42:35.688Z,9.38
2022-10-16T09:45:02.245Z,7.45
2022-10-16T09:47:29.494Z,7.47
2022-10-16T09:49:56.560Z,9.10
2022-10-16T09:52:23.173Z,7.25
2022-10-16T09:54:50.249Z,6.85
2022-10-16T09:57:16.856Z,15.93
2022-10-16T09:59:47.100Z,9.27
2022-10-16T10:02:13.617Z,6.93
2022-10-16T10:04:41.723Z,7.68
2022-10-16T10:07:08.424Z,7.13
2022-10-16T10:09:38.161Z,8.75
2022-10-16T10:12:05.121Z,6.10
2022-10-16T10:14:37.397Z,6.60
2022-10-16T10:17:04.018Z,7.07
2022-10-16T10:19:32.995Z,10.73
2022-10-16T10:21:59.669Z,13.50
2022-10-16T10:24:26.293Z,8.18
2022-10-16T10:26:58.667Z,7.93
2022-10-16T10:29:37.592Z,8.00
2022-10-16T10:32:10.959Z,5.72
2022-10-16T10:34:56.836Z,9.38
2022-10-16T10:37:39.391Z,9.45
2022-10-16T10:40:21.180Z,6.78
2022-10-16T10:42:50.177Z,6.13
2022-10-16T10:45:24.087Z,6.00
2022-10-16T10:48:02.874Z,6.13
2022-10-16T10:50:29.339Z,6.43
2022-10-16T10:52:59.235Z,6.28
2022-10-16T10:55:48.010Z,6.32
2022-10-16T10:58:20.690Z,7.18
2022-10-16T11:00:50.306Z,5.88
2022-10-16T11:03:35.880Z,5.90
2022-10-16T11:06:09.891Z,5.85
2022-10-16T11:08:37.536Z,6.50
2022-10-16T11:11:12.352Z,7.50
2022-10-16T11:13:38.904Z,6.40
2022-10-16T11:16:20.507Z,6.38
2022-10-16T11:18:48.279Z,6.68
2022-10-16T11:21:15.632Z,6.30
2022-10-16T11:23:53.641Z,6.47
2022-10-16T11:26:27.748Z,6.95
2022-10-16T11:28:56.232Z,5.88
2022-10-16T11:31:35.973Z,11.30
2022-10-16T11:34:04.478Z,6.88
2022-10-16T11:36:31.068Z,7.35
2022-10-16T11:38:57.726Z,6.72
2022-10-16T11:41:33.458Z,6.47
2022-10-16T11:44:03.199Z,7.55
2022-10-16T11:46:29.724Z,6.80
2022-10-16T11:49:09.561Z,6.88
2022-10-16T11:51:36.185Z,6.55
2022-10-16T11:54:08.565Z,9.73
2022-10-16T11:56:37.283Z,7.25
2022-10-16T11:59:24.055Z,5.00
2022-10-16T12:01:55.917Z,6.00
2022-10-16T12:04:25.679Z,6.43
2022-10-16T12:06:58.461Z,7.65
2022-10-16T12:09:28.833Z,5.90
2022-10-16T12:11:55.368Z,6.07
2022-10-16T12:14:23.334Z,7.47
2022-10-16T12:16:56.135Z,6.70
2022-10-16T12:19:23.063Z,7.82
2022-10-16T12:21:49.623Z,6.00
2022-10-16T12:24:34.877Z,10.48
2022-10-16T12:27:01.511Z,7.15
2022-10-16T12:29:31.168Z,6.90
2022-10-16T12:31:58.807Z,7.93
2022-10-16T12:34:29.529Z,7.22
2022-10-16T12:36:56.051Z,8.63
2022-10-16T12:39:23.819Z,12.05
2022-10-16T12:42:01.109Z,12.93
2022-10-16T12:44:27.640Z,8.77
2022-10-16T12:46:54.273Z,8.27
2022-10-16T12:49:30.333Z,7.78
2022-10-16T12:51:56.969Z,10.45
2022-10-16T12:54:44.323Z,12.95
2022-10-16T12:57:10.834Z,7.53
2022-10-16T12:59:52.724Z,10.50
2022-10-16T13:02:28.688Z,8.40
2022-10-16T13:05:04.131Z,9.07
2022-10-16T13:07:45.742Z,12.45
2022-10-16T13:10:18.305Z,9.48
2022-10-16T13:13:04.018Z,10.77
2022-10-16T13:15:49.331Z,11.18
2022-10-16T13:18:25.373Z,12.95
2022-10-16T13:21:10.967Z,11.07
2022-10-16T13:23:57.879Z,10.85
2022-10-16T13:26:37.601Z,10.02
2022-10-16T13:29:04.360Z,9.48
2022-10-16T13:31:31.398Z,11.85
2022-10-16T13:34:00.452Z,12.98
2022-10-16T13:36:44.415Z,9.27
2022-10-16T13:39:10.945Z,8.85
2022-10-16T13:41:37.551Z,10.48
2022-10-16T13:44:04.145Z,9.63
2022-10-16T13:46:35.476Z,8.98
2022-10-16T13:49:05.903Z,8.07
2022-10-16T13:51:32.733Z,10.65
2022-10-16T13:53:59.384Z,8.10
2022-10-16T13:56:28.789Z,9.50
2022-10-16T13:59:02.251Z,17.58
2022-10-16T14:01:32.607Z,9.32
2022-10-16T14:04:03.715Z,9.23
2022-10-16T14:06:30.252Z,10.70
2022-10-16T14:08:59.681Z,9.68
2022-10-16T14:11:26.494Z,8.50
2022-10-16T14:13:52.986Z,11.50
2022-10-16T14:16:23.487Z,9.55
2022-10-16T14:19:07.634Z,9.90
2022-10-16T14:21:34.684Z,9.35
2022-10-16T14:24:01.397Z,9.45
2022-10-16T14:26:28.443Z,11.02
2022-10-16T14:29:06.113Z,9.57
2022-10-16T14:31:33.937Z,9.23
2022-10-16T14:34:00.651Z,8.30
2022-10-16T14:36:27.593Z,7.32
2022-10-16T14:38:54.363Z,7.63
2022-10-16T14:41:21.687Z,9.77
2022-10-16T14:43:52.521Z,8.23
2022-10-16T14:48:50.840Z,8.18
2022-10-16T14:51:17.795Z,7.30
2022-10-16T14:53:44.268Z,8.65
2022-10-16T14:56:21.005Z,9.68
2022-10-16T14:58:47.621Z,10.18
2022-10-16T15:01:14.185Z,9.05
2022-10-16T15:03:40.806Z,14.27
2022-10-16T15:06:13.708Z,9.10
2022-10-16T15:08:40.571Z,13.00
2022-10-16T15:11:09.810Z,8.07
2022-10-16T15:13:36.429Z,11.38
2022-10-16T15:16:02.920Z,8.15
2022-10-16T15:18:29.593Z,8.20
2022-10-16T15:20:56.018Z,8.15
2022-10-16T15:23:22.816Z,8.85
2022-10-16T15:25:55.864Z,8.57
2022-10-16T15:28:22.557Z,8.38
2022-10-16T15:30:52.708Z,9.10
2022-10-16T15:33:20.094Z,9.68
2022-10-16T15:35:50.081Z,11.10
2022-10-16T15:38:16.668Z,10.10
2022-10-16T15:40:43.379Z,11.82
2022-10-16T15:43:10.041Z,12.02
2022-10-16T15:45:36.566Z,10.40
2022-10-16T15:48:03.111Z,13.77
2022-10-16T15:50:29.640Z,11.85
2022-10-16T15:52:56.142Z,11.50
2022-10-16T15:55:22.713Z,11.65
2022-10-16T15:57:49.174Z,11.57
2022-10-16T16:00:17.716Z,12.60
2022-10-16T16:02:44.412Z,12.48
2022-10-16T16:05:11.849Z,12.05
2022-10-16T16:07:38.667Z,16.08
2022-10-16T16:10:05.816Z,12.20
2022-10-16T16:12:32.499Z,17.33
2022-10-16T16:15:00.800Z,13.30
2022-10-16T16:17:31.252Z,18.00
2022-10-16T16:19:57.769Z,15.68
2022-10-16T16:22:24.265Z,18.58
2022-10-16T16:24:50.881Z,15.57
2022-10-16T16:27:17.361Z,15.50
2022-10-16T16:29:44.055Z,19.15
2022-10-16T16:32:10.550Z,15.32
2022-10-16T16:34:37.147Z,18.02
2022-10-16T16:37:03.891Z,20.92
2022-10-16T16:39:30.401Z,17.92
2022-10-16T16:41:57.629Z,19.52
2022-10-16T16:44:24.174Z,23.52
2022-10-16T16:46:50.721Z,19.90
2022-10-16T16:49:17.137Z,17.58
2022-10-16T16:51:43.680Z,19.75
2022-10-16T16:54:10.528Z,25.27
2022-10-16T16:56:37.065Z,24.90
2022-10-16T16:59:03.745Z,21.23
2022-10-16T17:01:30.399Z,22.92
2022-10-16T17:03:57.216Z,20.10
2022-10-16T17:06:24.882Z,23.08
2022-10-16T17:08:51.396Z,24.00
2022-10-16T17:11:19.180Z,25.80
2022-10-16T17:13:45.731Z,25.50
2022-10-16T17:16:12.340Z,23.48
2022-10-16T17:18:38.885Z,25.83
2022-10-16T17:21:06.333Z,24.23
2022-10-16T17:23:32.983Z,24.63
2022-10-16T17:26:10.403Z,26.10
2022-10-16T17:28:37.097Z,30.38
2022-10-16T17:31:20.145Z,30.67
2022-10-16T17:33:46.846Z,27.70
2022-10-16T17:36:14.815Z,28.02
2022-10-16T17:38:41.867Z,30.05
2022-10-16T17:41:14.873Z,28.83
2022-10-16T17:43:41.499Z,31.52
2022-10-16T17:46:08.370Z,28.15
2022-10-16T17:48:38.996Z,27.70
2022-10-16T17:51:06.621Z,31.23
2022-10-16T17:53:33.157Z,28.00
2022-10-16T17:56:02.690Z,30.13
2022-10-16T18:00:55.841Z,24.85
2022-10-16T18:03:22.375Z,28.13
2022-10-16T18:05:48.913Z,27.25
2022-10-16T18:08:15.369Z,26.67
2022-10-16T18:10:48.647Z,24.85
2022-10-16T18:13:15.171Z,28.92
2022-10-16T18:15:41.645Z,29.92
2022-10-16T18:18:08.176Z,29.65
2022-10-16T18:20:34.708Z,24.45
2022-10-16T18:23:01.420Z,31.35
2022-10-16T18:25:27.981Z,23.65
2022-10-16T18:27:54.752Z,27.85
2022-10-16T18:30:21.261Z,26.77
2022-10-16T18:32:47.874Z,25.30
2022-10-16T18:35:14.560Z,25.20
2022-10-16T18:37:41.070Z,22.27
2022-10-16T18:40:07.788Z,23.98
2022-10-16T18:42:34.253Z,23.75
2022-10-16T18:45:01.203Z,22.25
2022-10-16T18:47:29.121Z,21.23
2022-10-16T18:49:56.077Z,29.40
2022-10-16T18:52:23.986Z,27.13
2022-10-16T18:54:50.583Z,26.48
2022-10-16T18:57:17.469Z,29.17
2022-10-16T18:59:44.065Z,25.30
2022-10-16T19:02:11.252Z,26.70
2022-10-16T19:04:38.161Z,27.92
2022-10-16T19:07:04.625Z,24.83
2022-10-16T19:09:31.360Z,27.73
2022-10-16T19:11:59.733Z,31.08
2022-10-16T19:14:26.348Z,25.58
2022-10-16T19:16:52.789Z,25.60
2022-10-16T19:19:19.427Z,26.52
2022-10-16T19:21:46.907Z,29.20
2022-10-16T19:24:14.234Z,26.08
2022-10-16T19:26:42.147Z,26.80
2022-10-16T19:29:09.964Z,27.88
2022-10-16T19:31:36.536Z,28.90
2022-10-16T19:34:03.548Z,26.50
2022-10-16T19:36:30.804Z,28.65
2022-10-16T19:38:58.068Z,28.83
2022-10-16T19:41:24.797Z,31.02
2022-10-16T19:43:51.465Z,33.65
2022-10-16T19:46:22.169Z,34.33
2022-10-16T19:48:48.806Z,31.45
2022-10-16T19:51:16.570Z,32.38
2022-10-16T19:53:43.135Z,33.28
2022-10-16T19:56:17.022Z,35.83
2022-10-16T19:58:43.790Z,39.63
2022-10-16T20:01:10.558Z,41.17
2022-10-16T20:03:39.389Z,35.00
2022-10-16T20:06:07.085Z,33.13
2022-10-16T20:08:34.408Z,36.85
2022-10-16T20:11:01.259Z,36.65
2022-10-16T20:13:28.501Z,39.63
2022-10-16T20:15:55.272Z,38.67
2022-10-16T20:18:21.983Z,37.95
2022-10-16T20:20:49.747Z,36.17
2022-10-16T20:23:16.282Z,37.15
2022-10-16T20:25:43.051Z,32.92
2022-10-16T20:28:10.585Z,35.45
2022-10-16T20:30:37.556Z,35.65
2022-10-16T20:33:04.274Z,35.22
2022-10-16T20:35:35.509Z,31.45
2022-10-16T20:38:02.049Z,35.78
2022-10-16T20:40:28.692Z,32.22
2022-10-16T20:42:55.223Z,36.60
2022-10-16T20:45:21.893Z,36.35
2022-10-16T20:47:48.497Z,36.38
2022-10-16T20:50:16.466Z,36.40
2022-10-16T20:52:43.055Z,40.33
2022-10-16T20:55:09.515Z,39.33
2022-10-16T20:57:35.971Z,45.92
2022-10-16T21:00:02.409Z,59.85
2022-10-16T21:02:28.839Z,60.65
2022-10-16T21:04:55.373Z,56.13
2022-10-16T21:07:21.796Z,59.78
2022-10-16T21:09:48.196Z,59.55
2022-10-16T21:12:14.625Z,62.10
2022-10-16T21:14:46.485Z,63.80
2022-10-16T21:17:22.906Z,63.00
2022-10-16T21:19:49.541Z,58.28
2022-10-16T21:22:15.969Z,59.58
2022-10-16T21:24:42.377Z,58.72
2022-10-16T21:27:08.897Z,58.00
2022-10-16T21:29:35.359Z,52.53
2022-10-16T21:32:02.017Z,51.72
2022-10-16T21:34:28.428Z,52.85
2022-10-16T21:36:54.861Z,49.33
2022-10-16T21:39:21.355Z,46.30
2022-10-16T21:41:48.522Z,47.55
2022-10-16T21:44:14.912Z,48.00
2022-10-16T21:46:41.782Z,54.95
2022-10-16T21:49:10.337Z,41.70
2022-10-16T21:51:37.692Z,50.67
2022-10-16T21:54:05.554Z,53.13
2022-10-16T21:56:31.992Z,53.15
2022-10-16T21:58:58.376Z,56.22
2022-10-16T22:01:25.226Z,55.38
2022-10-16T22:03:51.768Z,62.97
2022-10-16T22:06:18.828Z,60.58
2022-10-16T22:08:45.891Z,52.20
2022-10-16T22:11:22.217Z,52.80
2022-10-16T22:13:52.644Z,64.47
2022-10-16T22:16:22.819Z,63.53
2022-10-16T22:18:51.302Z,60.58
2022-10-16T22:21:17.685Z,52.03
2022-10-16T22:23:44.109Z,54.40
2022-10-16T22:26:10.925Z,48.58
2022-10-16T22:28:37.828Z,54.63
2022-10-16T22:31:04.674Z,54.65
2022-10-16T22:33:31.212Z,54.28
2022-10-16T22:35:59.893Z,41.35
2022-10-16T22:38:26.324Z,49.33
2022-10-16T22:40:52.787Z,45.13
2022-10-16T22:43:19.222Z,44.58
2022-10-16T22:45:45.632Z,44.22
2022-10-16T22:48:12.095Z,43.38
2022-10-16T22:50:38.508Z,38.65
2022-10-16T22:53:04.918Z,43.80
2022-10-16T22:55:31.314Z,46.50
2022-10-16T22:57:57.788Z,50.83
2022-10-16T23:00:24.257Z,57.17
2022-10-16T23:02:50.703Z,54.63
2022-10-16T23:05:17.154Z,53.63
2022-10-16T23:07:44.800Z,59.25
2022-10-16T23:10:11.222Z,51.22
2022-10-16T23:12:37.631Z,47.35
2022-10-16T23:15:04.215Z,50.53
2022-10-16T23:17:30.633Z,53.13
2022-10-16T23:19:57.066Z,51.33
2022-10-16T23:22:23.462Z,52.97
2022-10-16T23:24:49.892Z,58.35
2022-10-16T23:27:16.308Z,53.70
2022-10-16T23:29:42.726Z,46.38
2022-10-16T23:32:09.121Z,44.10
2022-10-16T23:34:35.563Z,44.67
2022-10-16T23:37:03.823Z,41.05
2022-10-16T23:39:30.359Z,44.97
2022-10-16T23:41:56.744Z,42.47
2022-10-16T23:44:23.156Z,45.70
2022-10-16T23:46:49.571Z,41.50
2022-10-16T23:49:16.056Z,38.08
2022-10-16T23:51:42.463Z,41.05
2022-10-16T23:54:08.952Z,39.47
2022-10-16T23:56:35.393Z,43.03
2022-10-16T23:59:01.844Z,39.25
